createdAt,value
2017-11-14T00:00:22.667Z,2.59
2017-11-14T00:01:22.696Z,2.59
2017-11-14T00:02:22.703Z,2.56
2017-11-14T00:03:37.315Z,2.56
2017-11-14T00:04:22.401Z,2.56
2017-11-14T00:05:22.434Z,2.57
2017-11-14T00:06:22.756Z,2.46
2017-11-14T00:07:22.794Z,2.41
2017-11-14T00:09:37.511Z,2.43
2017-11-14T00:10:22.816Z,2.41
2017-11-14T00:11:22.835Z,2.31
2017-11-14T00:12:37.457Z,2.35
2017-11-14T00:13:22.877Z,2.41
2017-11-14T00:15:22.893Z,2.34
2017-11-14T00:16:22.922Z,2.28
2017-11-14T00:17:22.944Z,2.25
2017-11-14T00:18:22.954Z,2.27
2017-11-14T00:19:22.964Z,2.24
2017-11-14T00:20:22.972Z,2.1
2017-11-14T00:21:22.987Z,2.03
2017-11-14T00:23:23.049Z,1.84
2017-11-14T00:24:23.122Z,1.83
2017-11-14T00:25:23.057Z,1.77
2017-11-14T00:26:23.081Z,1.72
2017-11-14T00:27:23.072Z,1.7
2017-11-14T00:28:37.374Z,1.69
2017-11-14T00:29:23.101Z,1.7
2017-11-14T00:30:23.775Z,1.63
2017-11-14T00:31:23.140Z,1.54
2017-11-14T00:32:23.137Z,1.5
2017-11-14T00:33:22.836Z,1.42
2017-11-14T00:34:23.186Z,1.48
2017-11-14T00:35:23.224Z,1.4
2017-11-14T00:36:23.205Z,1.37
2017-11-14T00:37:23.224Z,1.47
2017-11-14T00:38:23.231Z,1.41
2017-11-14T00:39:22.920Z,1.47
2017-11-14T00:40:23.254Z,1.37
2017-11-14T00:42:23.295Z,1.3
2017-11-14T00:43:23.318Z,1.32
2017-11-14T00:45:23.357Z,1.3
2017-11-14T00:46:23.355Z,1.4
2017-11-14T00:47:23.383Z,1.32
2017-11-14T00:48:23.418Z,1.27
2017-11-14T00:49:23.400Z,1.24
2017-11-14T00:50:23.420Z,1.2
2017-11-14T00:51:23.413Z,1.16
2017-11-14T00:52:23.442Z,1.14
2017-11-14T00:53:23.443Z,1.15
2017-11-14T00:54:23.458Z,1.12
2017-11-14T00:55:23.484Z,1.09
2017-11-14T00:56:23.514Z,1.11
2017-11-14T00:57:23.508Z,1.22
2017-11-14T00:58:23.203Z,1.15
2017-11-14T00:59:37.816Z,1.14
2017-11-14T01:00:23.564Z,1.12
2017-11-14T01:02:23.575Z,1.12
2017-11-14T01:03:23.606Z,1.15
2017-11-14T01:05:23.625Z,1.14
2017-11-14T01:07:38.271Z,1.15
2017-11-14T01:08:23.685Z,1.14
2017-11-14T01:09:23.700Z,1.16
2017-11-14T01:10:23.382Z,1.24
2017-11-14T01:11:38.323Z,1.33
2017-11-14T01:12:23.837Z,1.33
2017-11-14T01:13:23.732Z,1.3
2017-11-14T01:15:23.784Z,1.47
2017-11-14T01:16:23.795Z,1.42
2017-11-14T01:17:23.800Z,1.47
2017-11-14T01:18:23.489Z,1.44
2017-11-14T01:20:23.843Z,1.36
2017-11-14T01:21:38.454Z,1.4
2017-11-14T01:23:23.890Z,1.32
2017-11-14T01:24:23.911Z,1.23
2017-11-14T01:25:23.914Z,1.22
2017-11-14T01:26:23.929Z,1.29
2017-11-14T01:27:23.932Z,1.27
2017-11-14T01:28:23.958Z,1.16
2017-11-14T01:29:23.974Z,1.22
2017-11-14T01:30:23.672Z,1.34
2017-11-14T01:31:38.279Z,1.33
2017-11-14T01:32:23.700Z,1.27
2017-11-14T01:33:24.044Z,1.23
2017-11-14T01:34:24.038Z,1.33
2017-11-14T01:35:23.756Z,1.32
2017-11-14T01:36:24.093Z,1.23
2017-11-14T01:37:23.751Z,1.24
2017-11-14T01:38:24.211Z,1.29
2017-11-14T01:39:38.709Z,1.32
2017-11-14T01:40:24.142Z,1.33
2017-11-14T01:43:24.171Z,1.27
2017-11-14T01:44:24.186Z,1.24
2017-11-14T01:45:24.201Z,1.16
2017-11-14T01:46:24.204Z,1.16
2017-11-14T01:48:23.931Z,1.14
2017-11-14T01:50:24.281Z,1.23
2017-11-14T01:51:24.287Z,1.34
2017-11-14T01:52:24.307Z,1.34
2017-11-14T01:54:24.344Z,1.33
2017-11-14T01:55:24.354Z,1.37
2017-11-14T01:56:24.353Z,1.32
2017-11-14T01:57:24.376Z,1.32
2017-11-14T01:58:24.389Z,1.42
2017-11-14T01:59:24.388Z,1.29
2017-11-14T02:00:24.407Z,1.4
2017-11-14T02:01:24.457Z,1.41
2017-11-14T02:02:24.444Z,1.34
2017-11-14T02:03:39.060Z,1.37
2017-11-14T02:04:24.478Z,1.41
2017-11-14T02:05:24.489Z,1.3
2017-11-14T02:06:24.509Z,1.48
2017-11-14T02:08:24.523Z,1.48
2017-11-14T02:09:39.141Z,1.36
2017-11-14T02:10:24.557Z,1.42
2017-11-14T02:11:24.574Z,1.41
2017-11-14T02:12:24.590Z,1.37
2017-11-14T02:13:24.612Z,1.34
2017-11-14T02:14:24.610Z,1.34
2017-11-14T02:15:24.636Z,1.32
2017-11-14T02:16:24.753Z,1.36
2017-11-14T02:18:24.668Z,1.47
2017-11-14T02:21:24.712Z,1.3
2017-11-14T02:22:24.732Z,1.16
2017-11-14T02:23:24.749Z,1.22
2017-11-14T02:24:24.740Z,1.18
2017-11-14T02:25:24.775Z,1.2
2017-11-14T02:26:24.787Z,1.16
2017-11-14T02:27:39.408Z,1.23
2017-11-14T02:28:24.803Z,1.33
2017-11-14T02:30:24.904Z,1.23
2017-11-14T02:31:24.861Z,1.26
2017-11-14T02:32:24.875Z,1.26
2017-11-14T02:33:24.887Z,1.26
2017-11-14T02:35:24.950Z,1.27
2017-11-14T02:36:24.939Z,1.34
2017-11-14T02:37:24.968Z,1.36
2017-11-14T02:38:24.954Z,1.45
2017-11-14T02:39:24.987Z,1.37
2017-11-14T02:40:24.666Z,1.34
2017-11-14T02:41:24.677Z,1.32
2017-11-14T02:42:25.003Z,1.36
2017-11-14T02:43:25.041Z,1.4
2017-11-14T02:44:25.040Z,1.3
2017-11-14T02:45:39.662Z,1.36
2017-11-14T02:47:25.088Z,1.36
2017-11-14T02:48:39.703Z,1.33
2017-11-14T02:49:25.123Z,1.37
2017-11-14T02:50:25.114Z,1.32
2017-11-14T02:51:25.151Z,1.34
2017-11-14T02:52:25.157Z,1.44
2017-11-14T02:53:25.159Z,1.4
2017-11-14T02:54:25.172Z,1.34
2017-11-14T02:55:25.192Z,1.4
2017-11-14T02:56:25.202Z,1.4
2017-11-14T02:57:25.215Z,1.37
2017-11-14T02:58:25.265Z,1.47
2017-11-14T02:59:25.265Z,1.4
2017-11-14T03:00:25.260Z,1.52
2017-11-14T03:01:39.882Z,1.37
2017-11-14T03:02:25.291Z,1.42
2017-11-14T03:03:25.307Z,1.55
2017-11-14T03:04:25.310Z,1.54
2017-11-14T03:05:25.446Z,1.54
2017-11-14T03:06:39.943Z,1.48
2017-11-14T03:07:25.370Z,1.48
2017-11-14T03:08:25.384Z,1.47
2017-11-14T03:09:25.393Z,1.47
2017-11-14T03:10:25.387Z,1.4
2017-11-14T03:11:25.403Z,1.4
2017-11-14T03:12:25.447Z,1.45
2017-11-14T03:13:40.047Z,1.34
2017-11-14T03:14:25.477Z,1.37
2017-11-14T03:15:25.463Z,1.36
2017-11-14T03:17:25.495Z,1.29
2017-11-14T03:18:25.512Z,1.37
2017-11-14T03:19:25.531Z,1.29
2017-11-14T03:20:25.551Z,1.26
2017-11-14T03:21:25.580Z,1.09
2017-11-14T03:22:40.180Z,1.16
2017-11-14T03:23:25.577Z,1.12
2017-11-14T03:24:25.597Z,1.18
2017-11-14T03:25:25.615Z,1.09
2017-11-14T03:26:25.625Z,1.08
2017-11-14T03:27:40.361Z,1.04
2017-11-14T03:28:25.641Z,1.14
2017-11-14T03:29:25.668Z,1.15
2017-11-14T03:30:25.462Z,1.08
2017-11-14T03:31:25.702Z,1.11
2017-11-14T03:32:25.396Z,0.98
2017-11-14T03:33:25.733Z,1.09
2017-11-14T03:34:25.742Z,0.94
2017-11-14T03:35:25.757Z,0.96
2017-11-14T03:36:25.773Z,1.15
2017-11-14T03:37:25.786Z,1.05
2017-11-14T03:38:40.401Z,1.16
2017-11-14T03:39:25.797Z,1.08
2017-11-14T03:40:25.822Z,1.05
2017-11-14T03:42:25.850Z,0.97
2017-11-14T03:43:25.533Z,1
2017-11-14T03:44:25.895Z,1.02
2017-11-14T03:45:25.892Z,0.97
2017-11-14T03:46:25.571Z,1.02
2017-11-14T03:47:25.919Z,0.9
2017-11-14T03:48:25.942Z,0.86
2017-11-14T03:49:25.932Z,0.84
2017-11-14T03:50:25.945Z,0.9
2017-11-14T03:51:25.959Z,0.86
2017-11-14T03:52:25.987Z,0.73
2017-11-14T03:53:25.678Z,0.72
2017-11-14T03:54:40.621Z,0.84
2017-11-14T03:55:26.043Z,0.7
2017-11-14T03:56:26.033Z,0.76
2017-11-14T03:57:26.059Z,0.68
2017-11-14T03:58:25.750Z,0.62
2017-11-14T03:59:26.096Z,0.55
2017-11-14T04:00:26.108Z,0.5
2017-11-14T04:01:26.107Z,0.41
2017-11-14T04:02:26.125Z,0.44
2017-11-14T04:03:26.149Z,0.47
2017-11-14T04:04:26.166Z,0.47
2017-11-14T04:05:26.159Z,0.42
2017-11-14T04:06:26.276Z,0.41
2017-11-14T04:07:26.200Z,0.38
2017-11-14T04:09:40.827Z,0.24
2017-11-14T04:10:26.254Z,0.28
2017-11-14T04:11:26.251Z,0.2
2017-11-14T04:12:26.261Z,0.24
2017-11-14T04:13:26.284Z,0.18
2017-11-14T04:14:26.291Z,0.17
2017-11-14T04:15:26.290Z,0.2
2017-11-14T04:16:26.323Z,0.24
2017-11-14T04:17:40.930Z,0.41
2017-11-14T04:18:26.342Z,0.38
2017-11-14T04:19:26.396Z,0.39
2017-11-14T04:20:26.362Z,0.39
2017-11-14T04:21:26.383Z,0.39
2017-11-14T04:22:26.397Z,0.32
2017-11-14T04:23:26.421Z,0.33
2017-11-14T04:24:26.478Z,0.28
2017-11-14T04:25:26.442Z,0.21
2017-11-14T04:26:26.441Z,0.18
2017-11-14T04:27:26.475Z,0.18
2017-11-14T04:28:26.488Z,0.14
2017-11-14T04:29:26.536Z,0.13
2017-11-14T04:30:26.518Z,0.15
2017-11-14T04:31:26.564Z,0.1
2017-11-14T04:32:26.536Z,0.11
2017-11-14T04:33:41.143Z,0.03
2017-11-14T04:34:26.585Z,0
2017-11-14T04:35:26.559Z,0.04
2017-11-14T04:36:26.586Z,-0.1
2017-11-14T04:37:26.603Z,-0.08
2017-11-14T04:38:26.620Z,-0.08
2017-11-14T04:39:26.628Z,-0.03
2017-11-14T04:40:26.644Z,-0.14
2017-11-14T04:41:41.272Z,-0.15
2017-11-14T04:42:26.685Z,-0.1
2017-11-14T04:43:26.673Z,-0.15
2017-11-14T04:44:26.723Z,-0.15
2017-11-14T04:45:26.396Z,-0.08
2017-11-14T04:46:26.719Z,-0.05
2017-11-14T04:47:26.745Z,-0.1
2017-11-14T04:48:26.741Z,-0.1
2017-11-14T04:49:26.782Z,-0.07
2017-11-14T04:50:26.773Z,-0.08
2017-11-14T04:51:26.470Z,-0.14
2017-11-14T04:53:26.498Z,-0.16
2017-11-14T04:54:26.849Z,-0.23
2017-11-14T04:55:41.454Z,-0.26
2017-11-14T04:56:26.870Z,-0.28
2017-11-14T04:57:41.471Z,-0.31
2017-11-14T04:58:26.577Z,-0.26
2017-11-14T04:59:26.898Z,-0.28
2017-11-14T05:00:26.928Z,-0.34
2017-11-14T05:01:26.935Z,-0.26
2017-11-14T05:02:26.951Z,-0.23
2017-11-14T05:03:26.954Z,-0.29
2017-11-14T05:04:26.641Z,-0.22
2017-11-14T05:05:26.979Z,-0.25
2017-11-14T05:07:27.006Z,-0.26
2017-11-14T05:08:27.019Z,-0.25
2017-11-14T05:09:41.640Z,-0.28
2017-11-14T05:10:27.031Z,-0.19
2017-11-14T05:11:27.069Z,-0.23
2017-11-14T05:12:27.062Z,-0.22
2017-11-14T05:14:27.092Z,-0.25
2017-11-14T05:15:27.126Z,-0.23
2017-11-14T05:16:27.117Z,-0.1
2017-11-14T05:17:27.184Z,-0.15
2017-11-14T05:18:41.753Z,-0.11
2017-11-14T05:19:27.155Z,-0.03
2017-11-14T05:20:27.170Z,0
2017-11-14T05:21:27.199Z,0
2017-11-14T05:22:27.210Z,-0.05
2017-11-14T05:23:27.218Z,-0.18
2017-11-14T05:24:27.232Z,-0.18
2017-11-14T05:25:27.247Z,-0.19
2017-11-14T05:26:27.269Z,-0.26
2017-11-14T05:27:27.261Z,-0.29
2017-11-14T05:29:41.896Z,-0.33
2017-11-14T05:31:27.325Z,-0.37
2017-11-14T05:32:27.327Z,-0.37
2017-11-14T05:33:27.360Z,-0.36
2017-11-14T05:34:27.369Z,-0.44
2017-11-14T05:35:27.471Z,-0.37
2017-11-14T05:37:27.078Z,-0.36
2017-11-14T05:38:42.016Z,-0.4
2017-11-14T05:39:27.431Z,-0.4
2017-11-14T05:40:27.458Z,-0.49
2017-11-14T05:41:27.468Z,-0.47
2017-11-14T05:42:27.479Z,-0.42
2017-11-14T05:43:27.500Z,-0.55
2017-11-14T05:44:42.110Z,-0.44
2017-11-14T05:45:27.181Z,-0.51
2017-11-14T05:46:27.546Z,-0.49
2017-11-14T05:47:27.550Z,-0.51
2017-11-14T05:48:27.555Z,-0.52
2017-11-14T05:49:27.572Z,-0.44
2017-11-14T05:50:27.584Z,-0.42
2017-11-14T05:51:27.600Z,-0.46
2017-11-14T05:53:27.609Z,-0.47
2017-11-14T05:54:27.667Z,-0.49
2017-11-14T05:55:27.662Z,-0.44
2017-11-14T05:56:27.654Z,-0.44
2017-11-14T05:57:27.658Z,-0.42
2017-11-14T05:58:27.693Z,-0.57
2017-11-14T05:59:27.707Z,-0.39
2017-11-14T06:00:27.712Z,-0.46
2017-11-14T06:01:27.709Z,-0.44
2017-11-14T06:02:27.742Z,-0.44
2017-11-14T06:03:27.752Z,-0.46
2017-11-14T06:04:27.776Z,-0.47
2017-11-14T06:05:27.453Z,-0.43
2017-11-14T06:06:27.894Z,-0.42
2017-11-14T06:07:27.814Z,-0.43
2017-11-14T06:08:27.812Z,-0.36
2017-11-14T06:09:27.825Z,-0.31
2017-11-14T06:10:27.838Z,-0.34
2017-11-14T06:11:27.860Z,-0.26
2017-11-14T06:12:27.876Z,-0.23
2017-11-14T06:13:27.886Z,-0.22
2017-11-14T06:14:27.895Z,-0.23
2017-11-14T06:15:27.900Z,-0.28
2017-11-14T06:16:42.525Z,-0.26
2017-11-14T06:17:27.941Z,-0.15
2017-11-14T06:18:27.935Z,-0.18
2017-11-14T06:19:27.971Z,-0.11
2017-11-14T06:20:27.975Z,-0.21
2017-11-14T06:21:27.985Z,-0.08
2017-11-14T06:22:28.041Z,-0.07
2017-11-14T06:23:27.689Z,0.03
2017-11-14T06:24:28.012Z,0.1
2017-11-14T06:25:28.038Z,0.1
2017-11-14T06:26:28.045Z,0.08
2017-11-14T06:27:28.052Z,-0.03
2017-11-14T06:28:42.683Z,0.18
2017-11-14T06:29:28.220Z,0.15
2017-11-14T06:30:28.091Z,0.18
2017-11-14T06:31:28.117Z,0.17
2017-11-14T06:32:42.742Z,0.21
2017-11-14T06:33:27.824Z,0.18
2017-11-14T06:34:28.168Z,0.13
2017-11-14T06:35:28.157Z,0.15
2017-11-14T06:36:28.171Z,0.15
2017-11-14T06:37:27.883Z,0.2
2017-11-14T06:38:28.198Z,0.15
2017-11-14T06:39:27.902Z,0.14
2017-11-14T06:40:27.913Z,0.17
2017-11-14T06:42:28.258Z,0.38
2017-11-14T06:43:28.284Z,0.46
2017-11-14T06:44:28.296Z,0.51
2017-11-14T06:45:27.975Z,0.42
2017-11-14T06:46:28.325Z,0.55
2017-11-14T06:47:28.327Z,0.6
2017-11-14T06:48:42.947Z,0.72
2017-11-14T06:49:28.352Z,0.65
2017-11-14T06:50:28.375Z,0.69
2017-11-14T06:51:28.399Z,0.7
2017-11-14T06:52:28.396Z,0.78
2017-11-14T06:53:28.081Z,0.8
2017-11-14T06:54:28.106Z,0.93
2017-11-14T06:55:28.434Z,0.91
2017-11-14T06:56:28.129Z,1.06
2017-11-14T06:58:28.151Z,1.04
2017-11-14T06:59:28.485Z,1.14
2017-11-14T07:00:28.512Z,1.24
2017-11-14T07:01:28.507Z,1.22
2017-11-14T07:02:28.539Z,1.22
2017-11-14T07:03:28.543Z,1.41
2017-11-14T07:04:43.154Z,1.32
2017-11-14T07:05:28.570Z,1.33
2017-11-14T07:06:28.596Z,1.37
2017-11-14T07:08:28.608Z,1.34
2017-11-14T07:09:28.614Z,1.36
2017-11-14T07:10:28.640Z,1.36
2017-11-14T07:12:28.670Z,1.44
2017-11-14T07:13:28.668Z,1.37
2017-11-14T07:15:28.698Z,1.45
2017-11-14T07:16:28.714Z,1.55
2017-11-14T07:17:28.633Z,1.51
2017-11-14T07:18:28.749Z,1.4
2017-11-14T07:19:43.366Z,1.58
2017-11-14T07:20:28.779Z,1.54
2017-11-14T07:21:28.790Z,1.62
2017-11-14T07:22:28.790Z,1.44
2017-11-14T07:23:28.822Z,1.55
2017-11-14T07:24:28.835Z,1.54
2017-11-14T07:25:28.831Z,1.65
2017-11-14T07:26:28.872Z,1.55
2017-11-14T07:27:28.549Z,1.59
2017-11-14T07:28:28.885Z,1.59
2017-11-14T07:29:28.895Z,1.55
2017-11-14T07:31:43.535Z,1.8
2017-11-14T07:32:28.947Z,1.68
2017-11-14T07:33:28.956Z,1.62
2017-11-14T07:34:28.967Z,1.76
2017-11-14T07:35:28.667Z,1.79
2017-11-14T07:36:28.999Z,1.76
2017-11-14T07:37:28.997Z,1.76
2017-11-14T07:38:29.014Z,1.79
2017-11-14T07:39:29.043Z,1.76
2017-11-14T07:40:29.045Z,1.79
2017-11-14T07:41:43.663Z,1.77
2017-11-14T07:42:28.745Z,1.77
2017-11-14T07:43:29.096Z,1.72
2017-11-14T07:44:29.107Z,1.86
2017-11-14T07:45:29.121Z,1.84
2017-11-14T07:46:29.133Z,1.84
2017-11-14T07:47:29.147Z,1.9
2017-11-14T07:48:29.164Z,1.87
2017-11-14T07:49:29.170Z,1.87
2017-11-14T07:50:29.186Z,2.02
2017-11-14T07:51:43.812Z,1.98
2017-11-14T07:52:29.226Z,2.02
2017-11-14T07:53:29.251Z,1.98
2017-11-14T07:54:29.264Z,2.16
2017-11-14T07:55:29.255Z,2.07
2017-11-14T07:56:29.274Z,2.06
2017-11-14T07:57:43.895Z,2.16
2017-11-14T07:58:29.300Z,2.2
2017-11-14T07:59:29.426Z,2.28
2017-11-14T08:00:29.328Z,2.21
2017-11-14T08:01:29.336Z,2.18
2017-11-14T08:02:29.041Z,2.18
2017-11-14T08:04:29.382Z,2.24
2017-11-14T08:05:29.075Z,2.3
2017-11-14T08:06:29.416Z,2.31
2017-11-14T08:07:44.032Z,2.21
2017-11-14T08:08:43.719Z,2.3
2017-11-14T08:09:29.461Z,2.3
2017-11-14T08:10:29.457Z,2.24
2017-11-14T08:11:29.155Z,2.3
2017-11-14T08:12:29.489Z,2.28
2017-11-14T08:13:29.517Z,2.36
2017-11-14T08:14:29.521Z,2.39
2017-11-14T08:15:29.538Z,2.39
2017-11-14T08:16:29.221Z,2.36
2017-11-14T08:17:29.566Z,2.38
2017-11-14T08:20:29.616Z,2.63
2017-11-14T08:21:29.627Z,2.61
2017-11-14T08:22:29.645Z,2.63
2017-11-14T08:23:44.245Z,2.75
2017-11-14T08:24:29.653Z,2.69
2017-11-14T08:25:29.675Z,2.82
2017-11-14T08:26:29.710Z,2.77
2017-11-14T08:27:29.389Z,2.77
2017-11-14T08:28:29.733Z,2.81
2017-11-14T08:30:29.743Z,2.87
2017-11-14T08:31:29.753Z,2.92
2017-11-14T08:32:29.784Z,2.9
2017-11-14T08:33:29.807Z,2.84
2017-11-14T08:34:29.817Z,2.87
2017-11-14T08:35:29.834Z,2.87
2017-11-14T08:36:29.835Z,2.84
2017-11-14T08:37:29.858Z,2.96
2017-11-14T08:38:29.862Z,3.03
2017-11-14T08:39:44.479Z,3.1
2017-11-14T08:40:29.882Z,3.05
2017-11-14T08:41:29.919Z,3.06
2017-11-14T08:42:29.598Z,3.14
2017-11-14T08:43:30.053Z,3.05
2017-11-14T08:44:29.624Z,3.08
2017-11-14T08:45:44.567Z,3.15
2017-11-14T08:46:29.989Z,3.08
2017-11-14T08:47:29.999Z,3.02
2017-11-14T08:48:44.609Z,3
2017-11-14T08:49:30.042Z,3.06
2017-11-14T08:50:30.043Z,3.02
2017-11-14T08:51:30.093Z,3.02
2017-11-14T08:52:29.770Z,3.18
2017-11-14T08:53:44.688Z,3.14
2017-11-14T08:54:44.718Z,3.18
2017-11-14T08:55:30.132Z,3.23
2017-11-14T08:56:30.134Z,3.29
2017-11-14T08:57:30.155Z,3.33
2017-11-14T08:58:30.165Z,3.45
2017-11-14T08:59:30.174Z,3.45
2017-11-14T09:00:44.786Z,3.43
2017-11-14T09:01:30.225Z,3.51
2017-11-14T09:02:30.223Z,3.4
2017-11-14T09:03:30.244Z,3.6
2017-11-14T09:05:30.271Z,3.5
2017-11-14T09:06:30.282Z,3.57
2017-11-14T09:07:30.308Z,3.54
2017-11-14T09:08:30.315Z,3.55
2017-11-14T09:09:29.999Z,3.58
2017-11-14T09:10:30.367Z,3.61
2017-11-14T09:11:30.337Z,3.7
2017-11-14T09:12:30.376Z,3.76
2017-11-14T09:13:30.375Z,3.8
2017-11-14T09:14:30.410Z,3.72
2017-11-14T09:15:30.434Z,3.86
2017-11-14T09:16:30.421Z,3.88
2017-11-14T09:17:30.122Z,3.87
2017-11-14T09:18:30.447Z,3.9
2017-11-14T09:19:30.473Z,3.79
2017-11-14T09:20:30.490Z,3.83
2017-11-14T09:22:30.575Z,3.97
2017-11-14T09:23:30.550Z,4
2017-11-14T09:24:30.546Z,4.04
2017-11-14T09:25:30.572Z,4.02
2017-11-14T09:26:45.179Z,3.98
2017-11-14T09:27:30.598Z,4.04
2017-11-14T09:28:30.620Z,4.06
2017-11-14T09:29:30.645Z,4.2
2017-11-14T09:30:30.633Z,4.02
2017-11-14T09:31:30.676Z,4.2
2017-11-14T09:32:30.668Z,4.18
2017-11-14T09:33:30.682Z,4.27
2017-11-14T09:34:45.314Z,4.3
2017-11-14T09:35:30.725Z,4.27
2017-11-14T09:36:30.719Z,4.32
2017-11-14T09:37:30.752Z,4.36
2017-11-14T09:38:30.772Z,4.34
2017-11-14T09:39:30.770Z,4.37
2017-11-14T09:40:30.802Z,4.33
2017-11-14T09:41:30.808Z,4.33
2017-11-14T09:42:45.429Z,4.37
2017-11-14T09:43:30.524Z,4.37
2017-11-14T09:44:30.621Z,4.5
2017-11-14T09:45:30.874Z,4.44
2017-11-14T09:46:45.487Z,4.44
2017-11-14T09:47:30.912Z,4.41
2017-11-14T09:48:30.921Z,4.58
2017-11-14T09:50:30.975Z,4.69
2017-11-14T09:51:30.669Z,4.82
2017-11-14T09:52:30.997Z,4.69
2017-11-14T09:53:31.010Z,4.65
2017-11-14T09:54:31.025Z,4.73
2017-11-14T09:55:31.042Z,4.72
2017-11-14T09:56:45.331Z,4.72
2017-11-14T09:57:31.069Z,4.66
2017-11-14T09:58:45.781Z,4.72
2017-11-14T09:59:31.098Z,4.67
2017-11-14T10:00:31.131Z,4.69
2017-11-14T10:01:31.136Z,4.69
2017-11-14T10:02:31.146Z,4.73
2017-11-14T10:03:30.848Z,4.72
2017-11-14T10:05:31.216Z,4.69
2017-11-14T10:06:31.228Z,4.86
2017-11-14T10:07:30.916Z,4.94
2017-11-14T10:08:31.247Z,4.99
2017-11-14T10:09:31.273Z,4.97
2017-11-14T10:10:31.294Z,5.04
2017-11-14T10:11:31.306Z,4.96
2017-11-14T10:12:31.328Z,5.09
2017-11-14T10:13:31.032Z,5.03
2017-11-14T10:14:45.947Z,5.04
2017-11-14T10:16:31.391Z,5.2
2017-11-14T10:17:31.052Z,5.18
2017-11-14T10:18:31.413Z,5.13
2017-11-14T10:19:31.460Z,5.13
2017-11-14T10:20:31.460Z,5.09
2017-11-14T10:21:31.455Z,5.2
2017-11-14T10:22:31.473Z,5.36
2017-11-14T10:23:31.485Z,5.38
2017-11-14T10:24:31.168Z,5.43
2017-11-14T10:25:31.532Z,5.4
2017-11-14T10:26:31.220Z,5.43
2017-11-14T10:27:31.550Z,5.24
2017-11-14T10:28:31.578Z,5.36
2017-11-14T10:29:46.187Z,5.53
2017-11-14T10:30:46.193Z,5.49
2017-11-14T10:31:31.648Z,5.54
2017-11-14T10:32:46.240Z,5.56
2017-11-14T10:33:31.318Z,5.61
2017-11-14T10:34:46.266Z,5.63
2017-11-14T10:35:31.685Z,5.63
2017-11-14T10:36:31.694Z,5.68
2017-11-14T10:37:31.702Z,5.74
2017-11-14T10:39:31.430Z,5.65
2017-11-14T10:40:31.776Z,5.74
2017-11-14T10:41:31.775Z,5.68
2017-11-14T10:42:31.482Z,5.75
2017-11-14T10:43:31.488Z,5.61
2017-11-14T10:44:31.817Z,5.51
2017-11-14T10:45:31.843Z,5.51
2017-11-14T10:46:31.528Z,5.56
2017-11-14T10:47:31.558Z,5.46
2017-11-14T10:48:31.881Z,5.49
2017-11-14T10:49:31.587Z,5.71
2017-11-14T10:50:31.933Z,5.57
2017-11-14T10:51:31.932Z,5.48
2017-11-14T10:52:31.963Z,5.49
2017-11-14T10:53:31.979Z,5.58
2017-11-14T10:54:32.018Z,5.4
2017-11-14T10:55:32.040Z,5.48
2017-11-14T10:56:32.037Z,5.45
2017-11-14T10:57:31.723Z,5.51
2017-11-14T10:58:32.071Z,5.53
2017-11-14T10:59:32.066Z,5.49
2017-11-14T11:00:32.206Z,5.49
2017-11-14T11:01:46.703Z,5.61
2017-11-14T11:02:46.712Z,5.64
2017-11-14T11:03:32.149Z,5.65
2017-11-14T11:04:46.774Z,5.68
2017-11-14T11:05:32.170Z,5.68
2017-11-14T11:06:32.190Z,5.78
2017-11-14T11:07:31.885Z,5.76
2017-11-14T11:08:32.336Z,5.75
2017-11-14T11:09:31.914Z,5.75
2017-11-14T11:10:32.280Z,5.76
2017-11-14T11:11:32.270Z,5.79
2017-11-14T11:12:32.296Z,5.85
2017-11-14T11:13:32.301Z,5.86
2017-11-14T11:14:32.329Z,5.82
2017-11-14T11:15:32.319Z,5.94
2017-11-14T11:16:32.363Z,5.91
2017-11-14T11:17:46.963Z,6.01
2017-11-14T11:18:32.065Z,5.91
2017-11-14T11:19:32.408Z,5.96
2017-11-14T11:20:32.427Z,5.96
2017-11-14T11:21:32.431Z,5.96
2017-11-14T11:22:32.447Z,5.96
2017-11-14T11:23:32.151Z,5.99
2017-11-14T11:24:32.482Z,5.96
2017-11-14T11:25:47.096Z,6.03
2017-11-14T11:26:32.187Z,6.09
2017-11-14T11:27:32.213Z,6.06
2017-11-14T11:28:32.559Z,6.03
2017-11-14T11:29:32.229Z,6.09
2017-11-14T11:30:32.582Z,6.11
2017-11-14T11:31:32.596Z,6.15
2017-11-14T11:32:32.287Z,6.12
2017-11-14T11:34:32.325Z,6.22
2017-11-14T11:35:32.684Z,6.3
2017-11-14T11:37:32.366Z,6.31
2017-11-14T11:38:32.720Z,6.3
2017-11-14T11:39:32.718Z,6.31
2017-11-14T11:40:47.349Z,6.43
2017-11-14T11:41:32.784Z,6.41
2017-11-14T11:42:32.791Z,6.44
2017-11-14T11:43:32.797Z,6.41
2017-11-14T11:45:32.840Z,6.41
2017-11-14T11:46:32.846Z,6.51
2017-11-14T11:47:32.860Z,6.55
2017-11-14T11:48:32.868Z,6.62
2017-11-14T11:49:47.508Z,6.62
2017-11-14T11:50:32.914Z,6.58
2017-11-14T11:51:32.613Z,6.59
2017-11-14T11:52:32.965Z,6.55
2017-11-14T11:53:33.062Z,6.61
2017-11-14T11:54:32.989Z,6.59
2017-11-14T11:55:32.666Z,6.7
2017-11-14T11:56:33.016Z,6.56
2017-11-14T11:57:47.630Z,6.54
2017-11-14T11:58:33.060Z,6.59
2017-11-14T11:59:32.416Z,6.61
2017-11-14T12:00:33.089Z,6.59
2017-11-14T12:01:33.100Z,6.56
2017-11-14T12:02:33.101Z,6.46
2017-11-14T12:03:33.132Z,6.52
2017-11-14T12:05:33.168Z,6.58
2017-11-14T12:06:33.276Z,6.64
2017-11-14T12:07:33.199Z,6.56
2017-11-14T12:08:33.213Z,6.58
2017-11-14T12:09:33.243Z,6.67
2017-11-14T12:10:32.609Z,6.7
2017-11-14T12:11:32.936Z,6.76
2017-11-14T12:12:33.294Z,6.79
2017-11-14T12:13:33.309Z,6.85
2017-11-14T12:14:33.306Z,6.92
2017-11-14T12:15:33.333Z,6.88
2017-11-14T12:16:33.364Z,6.94
2017-11-14T12:18:33.391Z,6.98
2017-11-14T12:19:33.426Z,6.97
2017-11-14T12:20:33.439Z,7.15
2017-11-14T12:21:33.439Z,7.1
2017-11-14T12:22:33.460Z,7.12
2017-11-14T12:23:33.487Z,7.12
2017-11-14T12:24:33.488Z,7.12
2017-11-14T12:25:33.522Z,7.1
2017-11-14T12:26:33.518Z,7.15
2017-11-14T12:27:33.537Z,7.24
2017-11-14T12:28:48.164Z,7.21
2017-11-14T12:29:33.586Z,7.31
2017-11-14T12:30:33.608Z,7.45
2017-11-14T12:31:48.208Z,7.35
2017-11-14T12:32:33.622Z,7.55
2017-11-14T12:33:33.655Z,7.46
2017-11-14T12:34:33.341Z,7.58
2017-11-14T12:35:48.274Z,7.53
2017-11-14T12:36:48.294Z,7.5
2017-11-14T12:37:33.713Z,7.49
2017-11-14T12:38:33.726Z,7.5
2017-11-14T12:39:33.416Z,7.5
2017-11-14T12:40:33.780Z,7.43
2017-11-14T12:41:33.885Z,7.5
2017-11-14T12:42:48.410Z,7.5
2017-11-14T12:44:33.841Z,7.58
2017-11-14T12:45:33.865Z,7.6
2017-11-14T12:46:33.901Z,7.63
2017-11-14T12:47:33.882Z,7.69
2017-11-14T12:48:33.911Z,7.63
2017-11-14T12:49:33.928Z,7.8
2017-11-14T12:51:33.968Z,7.68
2017-11-14T12:52:48.587Z,7.79
2017-11-14T12:53:48.604Z,7.82
2017-11-14T12:54:34.023Z,7.75
2017-11-14T12:55:34.025Z,7.72
2017-11-14T12:56:34.056Z,7.82
2017-11-14T12:57:33.940Z,7.83
2017-11-14T12:58:33.954Z,7.85
2017-11-14T12:59:33.977Z,7.85
2017-11-14T13:00:33.730Z,7.79
2017-11-14T13:01:34.023Z,7.82
2017-11-14T13:02:34.028Z,7.9
2017-11-14T13:03:34.042Z,7.72
2017-11-14T13:04:34.059Z,7.83
2017-11-14T13:05:34.084Z,7.79
2017-11-14T13:06:33.832Z,7.85
2017-11-14T13:07:34.131Z,7.87
2017-11-14T13:08:48.793Z,7.87
2017-11-14T13:09:33.888Z,7.82
2017-11-14T13:10:33.925Z,7.86
2017-11-14T13:11:34.202Z,7.75
2017-11-14T13:12:33.945Z,7.9
2017-11-14T13:13:48.877Z,7.87
2017-11-14T13:14:34.233Z,7.83
2017-11-14T13:15:34.000Z,7.86
2017-11-14T13:16:34.299Z,7.86
2017-11-14T13:17:34.306Z,8.02
2017-11-14T13:19:48.998Z,8
2017-11-14T13:20:34.454Z,8.02
2017-11-14T13:21:34.379Z,7.93
2017-11-14T13:22:34.376Z,7.9
2017-11-14T13:23:34.430Z,7.86
2017-11-14T13:24:49.088Z,7.87
2017-11-14T13:25:34.437Z,7.87
2017-11-14T13:26:34.456Z,7.9
2017-11-14T13:27:34.203Z,7.82
2017-11-14T13:28:34.497Z,7.8
2017-11-14T13:29:34.495Z,7.8
2017-11-14T13:30:34.516Z,7.79
2017-11-14T13:32:34.595Z,7.75
2017-11-14T13:33:34.586Z,7.85
2017-11-14T13:34:34.597Z,7.75
2017-11-14T13:35:34.619Z,7.64
2017-11-14T13:36:34.640Z,7.71
2017-11-14T13:37:34.653Z,7.71
2017-11-14T13:38:34.410Z,7.71
2017-11-14T13:39:49.352Z,7.72
2017-11-14T13:40:34.707Z,7.68
2017-11-14T13:41:34.725Z,7.68
2017-11-14T13:42:34.738Z,7.63
2017-11-14T13:43:34.764Z,7.61
2017-11-14T13:44:49.455Z,7.69
2017-11-14T13:45:49.467Z,7.64
2017-11-14T13:46:34.804Z,7.69
2017-11-14T13:47:34.836Z,7.58
2017-11-14T13:48:34.856Z,7.69
2017-11-14T13:49:34.870Z,7.58
2017-11-14T13:50:34.877Z,7.64
2017-11-14T13:51:34.997Z,7.52
2017-11-14T13:52:34.935Z,7.49
2017-11-14T13:53:34.954Z,7.5
2017-11-14T13:54:34.723Z,7.48
2017-11-14T13:55:34.729Z,7.39
2017-11-14T13:56:34.735Z,7.39
2017-11-14T13:57:35.001Z,7.43
2017-11-14T13:58:35.027Z,7.45
2017-11-14T13:59:35.039Z,7.46
2017-11-14T14:00:35.063Z,7.45
2017-11-14T14:01:34.816Z,7.34
2017-11-14T14:04:34.614Z,7.13
2017-11-14T14:05:35.143Z,7.27
2017-11-14T14:06:35.274Z,7.15
2017-11-14T14:07:35.195Z,7.12
2017-11-14T14:08:35.229Z,7.15
2017-11-14T14:09:35.241Z,7.13
2017-11-14T14:10:34.988Z,7.15
2017-11-14T14:11:49.926Z,7.07
2017-11-14T14:12:35.260Z,7.09
2017-11-14T14:13:49.947Z,7.15
2017-11-14T14:14:35.307Z,7.16
2017-11-14T14:15:35.327Z,7.23
2017-11-14T14:16:35.348Z,7.25
2017-11-14T14:17:35.357Z,7.35
2017-11-14T14:18:35.372Z,7.4